Time;durP1;ratioP1;P1;durP2;ratioP2;P2;SDS_P1;SDS_P2;PMS_P1;PMS_P2;Temp;Humidity;BMP_temperature;BMP_pressure;BME280_temperature;BME280_humidity;BME280_pressure;Samples;Min_cycle;Max_cycle;Signal;HPM_P1;HPM_P2
2024/01/01 00:01:56;;;;;;;17.08;15.70;;;7.50;99.90;;;;;;5029242;28;20052;-79
2024/01/01 00:04:24;;;;;;;17.25;15.45;;;7.50;99.90;;;;;;5015911;28;20836;-79
2024/01/01 00:06:51;;;;;;;15.88;14.68;;;7.60;99.90;;;;;;5029904;28;20048;-79
2024/01/01 00:09:17;;;;;;;16.40;15.02;;;7.60;99.90;;;;;;5035303;28;20056;-78
2024/01/01 00:11:44;;;;;;;16.65;15.10;;;7.60;99.90;;;;;;5030661;28;20076;-78
2024/01/01 00:14:12;;;;;;;16.95;15.70;;;7.60;99.90;;;;;;5009093;28;20508;-78
2024/01/01 00:16:39;;;;;;;16.98;15.25;;;7.60;99.90;;;;;;5024074;28;20068;-79
2024/01/01 00:19:06;;;;;;;16.58;14.90;;;7.60;99.90;;;;;;5026084;28;20099;-78
2024/01/01 00:21:33;;;;;;;16.65;15.15;;;7.60;99.90;;;;;;5030226;28;20076;-79
2024/01/01 00:24:00;;;;;;;16.58;15.25;;;7.70;99.90;;;;;;5031030;28;20056;-79
2024/01/01 00:26:27;;;;;;;17.27;15.48;;;7.70;99.90;;;;;;5030257;28;20063;-79
2024/01/01 00:28:59;;;;;;;16.15;14.63;;;7.80;99.90;;;;;;5036480;28;20523;-79
2024/01/01 00:31:26;;;;;;;16.10;15.07;;;7.70;99.90;;;;;;5036336;28;20041;-79
2024/01/01 00:33:53;;;;;;;17.63;15.95;;;7.80;99.90;;;;;;5022830;28;20045;-80
2024/01/01 00:36:20;;;;;;;18.80;17.27;;;7.80;99.90;;;;;;5037362;28;20503;-78
2024/01/01 00:38:47;;;;;;;17.58;16.35;;;7.80;99.90;;;;;;5028209;28;20091;-78
2024/01/01 00:41:15;;;;;;;17.02;15.25;;;7.90;99.90;;;;;;5033112;28;20132;-79
2024/01/01 00:43:45;;;;;;;16.88;15.68;;;7.90;99.90;;;;;;5024728;28;20055;-79
2024/01/01 00:46:12;;;;;;;16.52;15.05;;;7.90;99.90;;;;;;5023552;28;20053;-78
2024/01/01 00:48:39;;;;;;;17.70;16.20;;;7.90;99.90;;;;;;5031424;28;20059;-78
2024/01/01 00:51:06;;;;;;;16.80;15.40;;;7.80;99.90;;;;;;5026063;28;20129;-79
2024/01/01 00:53:33;;;;;;;16.38;15.00;;;7.80;99.90;;;;;;5019085;28;20098;-78
2024/01/01 00:56:00;;;;;;;17.15;15.85;;;7.80;99.90;;;;;;5016281;28;20045;-79
2024/01/01 00:58:27;;;;;;;17.27;15.95;;;7.70;99.90;;;;;;5029338;28;20041;-79
2024/01/01 01:00:56;;;;;;;17.17;15.98;;;7.70;99.90;;;;;;5040224;28;20147;-80
2024/01/01 01:03:23;;;;;;;16.98;15.77;;;7.70;99.90;;;;;;4986187;28;20049;-78
2024/01/01 01:05:50;;;;;;;16.98;15.65;;;7.60;99.90;;;;;;5027298;28;20504;-79
2024/01/01 01:08:17;;;;;;;16.38;15.20;;;7.60;99.90;;;;;;5030635;28;20055;-79
2024/01/01 01:10:44;;;;;;;17.85;16.52;;;7.50;99.90;;;;;;5007399;28;20069;-78
2024/01/01 01:13:11;;;;;;;16.60;15.27;;;7.50;99.90;;;;;;5018754;28;20099;-79
2024/01/01 01:15:38;;;;;;;17.92;16.48;;;7.50;99.90;;;;;;5027484;28;20048;-79
2024/01/01 01:18:05;;;;;;;17.83;16.20;;;7.50;99.90;;;;;;5007049;28;20041;-79
2024/01/01 01:20:32;;;;;;;17.08;15.60;;;7.50;99.90;;;;;;5022318;28;20048;-79
2024/01/01 01:22:59;;;;;;;18.50;16.95;;;7.60;99.90;;;;;;5010081;28;20056;-78
2024/01/01 01:25:26;;;;;;;17.58;15.85;;;7.60;99.90;;;;;;5024211;28;20052;-78
2024/01/01 01:27:52;;;;;;;19.13;17.42;;;7.60;99.90;;;;;;5010253;28;21196;-79
2024/01/01 01:30:19;;;;;;;17.85;16.60;;;7.70;99.90;;;;;;5014314;28;20045;-79
2024/01/01 01:32:46;;;;;;;18.38;16.65;;;7.80;99.90;;;;;;5003665;28;20057;-80
2024/01/01 01:35:13;;;;;;;19.35;17.38;;;7.80;99.90;;;;;;5030766;28;20128;-78
2024/01/01 01:37:40;;;;;;;19.70;17.58;;;7.90;99.90;;;;;;5002748;28;20075;-79
2024/01/01 01:40:07;;;;;;;18.65;17.00;;;7.90;99.90;;;;;;5063791;28;20041;-80
2024/01/01 01:42:34;;;;;;;19.02;17.10;;;7.90;99.90;;;;;;5002437;28;20046;-78
2024/01/01 01:45:02;;;;;;;19.45;17.20;;;7.90;99.90;;;;;;5038231;28;20057;-79
2024/01/01 01:47:29;;;;;;;18.98;16.92;;;7.90;99.90;;;;;;5003008;28;20108;-79
2024/01/01 01:49:57;;;;;;;19.80;17.95;;;7.90;99.90;;;;;;5030188;28;20598;-78
2024/01/01 01:52:24;;;;;;;19.85;17.70;;;7.90;99.90;;;;;;5029970;28;20143;-79
2024/01/01 01:54:53;;;;;;;18.80;17.15;;;7.90;99.90;;;;;;5009402;28;21043;-78
2024/01/01 01:57:20;;;;;;;19.58;18.02;;;7.90;99.90;;;;;;5033966;28;20051;-78
2024/01/01 01:59:47;;;;;;;18.00;16.40;;;7.90;99.90;;;;;;5035608;28;20099;-78
2024/01/01 02:02:15;;;;;;;18.02;16.60;;;7.90;99.90;;;;;;5039896;28;20041;-77
2024/01/01 02:04:42;;;;;;;18.73;16.92;;;7.90;99.90;;;;;;5035751;28;20045;-77
2024/01/01 02:07:09;;;;;;;18.83;17.00;;;7.90;99.90;;;;;;5071569;28;20095;-77
2024/01/01 02:09:38;;;;;;;17.95;16.45;;;7.90;99.90;;;;;;5049209;28;20048;-78
2024/01/01 02:12:07;;;;;;;19.50;17.30;;;7.90;99.90;;;;;;5067182;28;20040;-78
2024/01/01 02:14:34;;;;;;;22.95;16.73;;;7.90;99.90;;;;;;5015881;28;20045;-78
2024/01/01 02:17:02;;;;;;;19.25;16.35;;;7.90;99.90;;;;;;5041008;28;20051;-79
2024/01/01 02:19:30;;;;;;;16.73;15.50;;;7.80;99.90;;;;;;5042381;28;20043;-78
2024/01/01 02:21:57;;;;;;;17.75;16.20;;;7.80;99.90;;;;;;5031649;28;20048;-79
2024/01/01 02:24:24;;;;;;;18.13;16.35;;;7.90;99.90;;;;;;5033662;28;20053;-79
2024/01/01 02:26:51;;;;;;;17.95;16.42;;;7.90;99.90;;;;;;5022922;28;20124;-78
2024/01/01 02:29:18;;;;;;;18.13;16.60;;;7.90;99.90;;;;;;5039562;28;20647;-77
2024/01/01 02:31:46;;;;;;;18.73;16.95;;;8.00;99.90;;;;;;5031453;28;20048;-78
2024/01/01 02:34:13;;;;;;;19.15;17.30;;;8.00;99.90;;;;;;5034766;28;20041;-80
2024/01/01 02:36:40;;;;;;;19.15;17.15;;;8.00;99.90;;;;;;5031105;28;20781;-79
2024/01/01 02:39:09;;;;;;;18.30;16.35;;;8.00;99.90;;;;;;5045118;28;20041;-78
2024/01/01 02:41:37;;;;;;;20.23;17.98;;;8.00;99.90;;;;;;5023389;28;20562;-80
2024/01/01 02:44:04;;;;;;;19.50;17.48;;;8.00;99.90;;;;;;5017967;28;20052;-77
2024/01/01 02:46:31;;;;;;;18.35;16.90;;;8.00;99.90;;;;;;5013978;28;20780;-78
2024/01/01 02:48:58;;;;;;;18.83;17.02;;;7.90;99.90;;;;;;5030519;28;20049;-79
2024/01/01 02:51:25;;;;;;;18.30;16.77;;;7.90;99.90;;;;;;5007019;28;20065;-78
2024/01/01 02:53:52;;;;;;;18.90;17.38;;;8.00;99.90;;;;;;5018437;28;20049;-79
2024/01/01 02:56:23;;;;;;;18.67;17.13;;;8.00;99.90;;;;;;5032096;28;20132;-77
2024/01/01 02:58:50;;;;;;;19.20;17.40;;;8.00;99.90;;;;;;5042091;28;20103;-79
2024/01/01 03:01:18;;;;;;;19.45;17.60;;;8.00;99.90;;;;;;5004521;28;20582;-79
2024/01/01 03:03:45;;;;;;;18.75;17.00;;;8.00;99.90;;;;;;5013894;28;20049;-78
2024/01/01 03:06:12;;;;;;;19.05;17.08;;;8.10;99.90;;;;;;5034982;28;20569;-78
2024/01/01 03:08:39;;;;;;;18.10;16.77;;;8.00;99.90;;;;;;5037510;28;20065;-77
2024/01/01 03:11:06;;;;;;;17.33;16.05;;;8.00;99.90;;;;;;5034020;28;20048;-79
2024/01/01 03:13:33;;;;;;;18.05;16.63;;;8.00;99.90;;;;;;5027403;28;20049;-78
2024/01/01 03:16:00;;;;;;;17.77;16.48;;;7.90;99.90;;;;;;5034899;28;20554;-78
2024/01/01 03:18:27;;;;;;;18.02;16.55;;;7.90;99.90;;;;;;5020189;28;20128;-79
2024/01/01 03:20:55;;;;;;;17.83;16.40;;;7.80;99.90;;;;;;5015570;28;20053;-78
2024/01/01 03:23:22;;;;;;;19.63;17.13;;;7.80;99.90;;;;;;5015448;28;20596;-78
2024/01/01 03:25:49;;;;;;;18.73;16.90;;;7.80;99.90;;;;;;5027666;28;20084;-79
2024/01/01 03:28:16;;;;;;;19.15;17.42;;;7.70;99.90;;;;;;5045846;28;20044;-77
2024/01/01 03:30:43;;;;;;;18.70;16.83;;;7.70;99.90;;;;;;5007912;28;20557;-78
2024/01/01 03:33:10;;;;;;;17.73;16.42;;;7.70;99.90;;;;;;5040467;28;20115;-79
2024/01/01 03:35:37;;;;;;;18.80;17.13;;;7.70;99.90;;;;;;5037898;28;20515;-78
2024/01/01 03:38:04;;;;;;;19.33;17.83;;;7.70;99.90;;;;;;4994304;28;20046;-79
2024/01/01 03:40:32;;;;;;;19.13;17.33;;;7.70;99.90;;;;;;5043119;28;20037;-77
2024/01/01 03:43:00;;;;;;;19.38;17.42;;;7.70;99.90;;;;;;5036328;28;20498;-80
2024/01/01 03:45:27;;;;;;;18.80;17.40;;;7.70;99.90;;;;;;5029874;28;20543;-78
2024/01/01 03:47:54;;;;;;;18.98;17.23;;;7.70;99.90;;;;;;5010177;28;21002;-78
2024/01/01 03:50:21;;;;;;;17.60;16.50;;;7.80;99.90;;;;;;5021519;28;20048;-79
2024/01/01 03:52:48;;;;;;;19.35;17.67;;;7.80;99.90;;;;;;5038359;28;20057;-79
2024/01/01 03:55:15;;;;;;;19.40;17.50;;;7.80;99.90;;;;;;5037417;28;20041;-79
2024/01/01 03:57:45;;;;;;;21.52;18.38;;;7.70;99.90;;;;;;5035013;28;20107;-78
2024/01/01 04:00:12;;;;;;;20.15;17.42;;;7.70;99.90;;;;;;5039727;28;20049;-78
2024/01/01 04:02:42;;;;;;;19.42;17.85;;;7.70;99.90;;;;;;5016962;28;20141;-79
2024/01/01 04:05:10;;;;;;;19.92;18.00;;;7.70;99.90;;;;;;5046487;28;20020;-78
2024/01/01 04:07:37;;;;;;;19.60;17.60;;;7.70;99.90;;;;;;5048113;28;20060;-79
2024/01/01 04:10:06;;;;;;;18.55;17.15;;;7.80;99.90;;;;;;5024790;28;20579;-79
2024/01/01 04:12:33;;;;;;;20.15;18.40;;;7.80;99.90;;;;;;5033957;28;20478;-78
2024/01/01 04:15:00;;;;;;;19.60;17.50;;;7.80;99.90;;;;;;5024446;28;20048;-79
2024/01/01 04:17:27;;;;;;;19.50;17.73;;;7.80;99.90;;;;;;5033700;28;20054;-79
2024/01/01 04:19:54;;;;;;;19.50;17.55;;;7.80;99.90;;;;;;5025198;28;20160;-78
2024/01/01 04:22:21;;;;;;;20.05;18.10;;;7.80;99.90;;;;;;5030203;28;20097;-78
2024/01/01 04:24:52;;;;;;;19.02;17.35;;;7.80;99.90;;;;;;5014634;28;20130;-79
2024/01/01 04:27:19;;;;;;;19.25;17.05;;;7.80;99.90;;;;;;5034760;28;20090;-78
2024/01/01 04:29:46;;;;;;;18.83;17.05;;;7.70;99.90;;;;;;4989434;28;20052;-79
2024/01/01 04:32:13;;;;;;;24.20;17.35;;;7.70;99.90;;;;;;5025448;28;20036;-79
2024/01/01 04:34:40;;;;;;;19.17;17.27;;;7.70;99.90;;;;;;5012473;28;20111;-78
2024/01/01 04:37:07;;;;;;;18.75;17.33;;;7.70;99.90;;;;;;5031287;28;20107;-78
2024/01/01 04:39:34;;;;;;;18.98;17.40;;;7.70;99.90;;;;;;5029795;28;20310;-78
2024/01/01 04:42:01;;;;;;;17.75;16.23;;;7.70;99.90;;;;;;5020832;28;20702;-78
2024/01/01 04:44:29;;;;;;;18.05;16.33;;;7.70;99.90;;;;;;5034991;28;20538;-78
2024/01/01 04:46:56;;;;;;;20.80;16.40;;;7.60;99.90;;;;;;5001484;28;20068;-78
2024/01/01 04:49:22;;;;;;;17.23;15.55;;;7.60;99.90;;;;;;5033662;28;20068;-80
2024/01/01 04:51:49;;;;;;;16.45;14.77;;;7.50;99.90;;;;;;5028372;28;20106;-78
2024/01/01 04:54:16;;;;;;;15.00;14.02;;;7.40;99.90;;;;;;5025633;28;20041;-78
2024/01/01 04:56:43;;;;;;;16.00;14.27;;;7.30;99.90;;;;;;5007421;28;20045;-77
2024/01/01 04:59:09;;;;;;;15.75;14.57;;;7.20;99.90;;;;;;5033408;28;20086;-78
2024/01/01 05:01:36;;;;;;;15.90;14.80;;;7.10;99.90;;;;;;5033790;28;20521;-78
2024/01/01 05:04:04;;;;;;;13.90;13.00;;;7.00;99.90;;;;;;5018642;28;20111;-77
2024/01/01 05:06:30;;;;;;;12.75;11.60;;;7.00;99.90;;;;;;4990911;28;20052;-77
2024/01/01 05:08:57;;;;;;;11.70;10.73;;;6.90;99.90;;;;;;5031129;28;20053;-79
2024/01/01 05:11:24;;;;;;;13.27;9.60;;;6.80;99.90;;;;;;5041769;28;20059;-78
2024/01/01 05:13:51;;;;;;;10.13;9.43;;;6.70;99.90;;;;;;5040410;28;20113;-78
2024/01/01 05:16:19;;;;;;;10.57;9.68;;;6.70;99.90;;;;;;5037552;28;20037;-78
2024/01/01 05:18:45;;;;;;;10.98;10.05;;;6.60;99.90;;;;;;5027820;28;20526;-79
2024/01/01 05:21:12;;;;;;;11.63;10.77;;;6.60;99.90;;;;;;5046320;28;20041;-77
2024/01/01 05:23:39;;;;;;;12.15;11.13;;;6.70;99.90;;;;;;5022831;28;20100;-76
2024/01/01 05:26:06;;;;;;;11.60;10.70;;;6.70;99.90;;;;;;5028386;28;20056;-76
2024/01/01 05:28:33;;;;;;;11.35;10.45;;;6.70;99.90;;;;;;5028906;28;20072;-76
2024/01/01 05:31:00;;;;;;;11.55;10.43;;;6.70;99.90;;;;;;5004453;28;20064;-77
2024/01/01 05:33:27;;;;;;;10.88;9.88;;;6.70;99.90;;;;;;5035454;28;20454;-76
2024/01/01 05:35:54;;;;;;;11.40;10.60;;;6.60;99.90;;;;;;5066786;28;20166;-76
2024/01/01 05:38:21;;;;;;;10.32;9.63;;;6.70;99.90;;;;;;5058743;28;23191;-74
2024/01/01 05:40:48;;;;;;;10.80;9.95;;;6.70;99.90;;;;;;5065272;28;20049;-74
2024/01/01 05:43:15;;;;;;;12.10;10.93;;;6.60;99.90;;;;;;5057670;28;20075;-77
2024/01/01 05:45:41;;;;;;;11.50;10.60;;;6.60;99.90;;;;;;5033717;28;20045;-75
2024/01/01 05:48:08;;;;;;;11.20;10.15;;;6.60;99.90;;;;;;5030013;28;20049;-77
2024/01/01 05:50:51;;;;;;;10.88;10.13;;;6.60;99.90;;;;;;5029381;28;20049;-76
2024/01/01 05:53:18;;;;;;;11.07;10.13;;;6.60;99.90;;;;;;5035600;28;20048;-76
2024/01/01 05:55:45;;;;;;;10.55;9.85;;;6.60;99.90;;;;;;5024773;28;20056;-76
2024/01/01 05:58:12;;;;;;;14.68;13.18;;;6.70;99.90;;;;;;5031641;28;20071;-75
2024/01/01 06:00:39;;;;;;;13.00;11.75;;;6.70;99.90;;;;;;5009273;28;20056;-77
2024/01/01 06:03:06;;;;;;;11.50;10.85;;;6.70;99.90;;;;;;5022431;28;20049;-76
2024/01/01 06:05:35;;;;;;;12.60;11.55;;;6.70;99.90;;;;;;4984324;28;20045;-77
2024/01/01 06:08:05;;;;;;;12.98;11.80;;;6.70;99.90;;;;;;5004343;28;20053;-78
2024/01/01 06:10:34;;;;;;;12.05;11.20;;;6.70;99.90;;;;;;5024312;28;20049;-76
2024/01/01 06:13:02;;;;;;;13.50;12.20;;;6.70;99.90;;;;;;5025278;28;20041;-76
2024/01/01 06:15:29;;;;;;;16.17;11.90;;;6.70;99.90;;;;;;5031361;28;20051;-77
2024/01/01 06:17:56;;;;;;;13.65;12.57;;;6.70;99.90;;;;;;5026094;28;20038;-78
2024/01/01 06:20:23;;;;;;;13.45;12.30;;;6.70;99.90;;;;;;5024020;28;20038;-77
2024/01/01 06:22:50;;;;;;;12.80;11.70;;;6.70;99.90;;;;;;5010926;28;20227;-75
2024/01/01 06:25:17;;;;;;;12.75;11.73;;;6.70;99.90;;;;;;5010331;28;20128;-77
2024/01/01 06:27:44;;;;;;;12.40;11.50;;;6.70;99.90;;;;;;5024760;28;20041;-76
2024/01/01 06:30:11;;;;;;;13.77;12.55;;;6.80;99.90;;;;;;5017589;28;20044;-75
2024/01/01 06:32:38;;;;;;;13.80;12.50;;;6.80;99.90;;;;;;5036942;28;20044;-77
2024/01/01 06:35:05;;;;;;;12.93;12.13;;;6.80;99.90;;;;;;5027585;28;20060;-77
2024/01/01 06:37:32;;;;;;;12.80;11.90;;;6.80;99.90;;;;;;5034420;28;20045;-79
2024/01/01 06:39:59;;;;;;;12.93;11.90;;;6.80;99.90;;;;;;5024334;28;20451;-78
2024/01/01 06:42:26;;;;;;;12.98;11.82;;;6.80;99.90;;;;;;5029742;28;20080;-78
2024/01/01 06:44:57;;;;;;;14.10;12.55;;;6.80;99.90;;;;;;5031663;28;20191;-79
2024/01/01 06:47:23;;;;;;;13.88;12.45;;;6.80;99.90;;;;;;5030980;28;20049;-76
2024/01/01 06:49:50;;;;;;;14.15;12.68;;;6.80;99.90;;;;;;5031729;28;20055;-77
2024/01/01 06:52:18;;;;;;;17.83;13.55;;;6.90;99.90;;;;;;5032951;28;20048;-77
2024/01/01 06:54:45;;;;;;;14.45;12.20;;;6.80;99.90;;;;;;5033142;28;20112;-76
2024/01/01 06:57:11;;;;;;;14.45;12.70;;;6.90;99.90;;;;;;5037850;28;20042;-78
2024/01/01 06:59:38;;;;;;;14.43;12.20;;;6.90;99.90;;;;;;5057687;28;20094;-76
2024/01/01 07:02:06;;;;;;;16.30;12.90;;;6.80;99.90;;;;;;5036488;28;20103;-78
2024/01/01 07:04:33;;;;;;;18.92;13.13;;;6.80;99.90;;;;;;5022315;28;20052;-78
2024/01/01 07:07:00;;;;;;;21.88;13.15;;;6.90;99.90;;;;;;5029103;28;20046;-76
2024/01/01 07:09:27;;;;;;;18.52;12.95;;;6.90;99.90;;;;;;5015479;28;20829;-79
2024/01/01 07:11:57;;;;;;;13.43;12.25;;;6.90;99.90;;;;;;5027928;28;20048;-78
2024/01/01 07:14:24;;;;;;;14.35;12.73;;;7.00;99.90;;;;;;5031024;28;20052;-78
2024/01/01 07:16:53;;;;;;;16.02;14.02;;;7.00;99.90;;;;;;5027385;28;20048;-77
2024/01/01 07:19:20;;;;;;;19.65;14.02;;;6.90;99.90;;;;;;5037492;28;20539;-78
2024/01/01 07:21:48;;;;;;;15.10;13.13;;;7.00;99.90;;;;;;5031788;28;20064;-76
2024/01/01 07:24:15;;;;;;;17.23;13.07;;;7.00;99.90;;;;;;5021776;28;20080;-77
2024/01/01 07:26:42;;;;;;;14.57;12.38;;;7.00;99.90;;;;;;5030999;28;20688;-74
2024/01/01 07:29:08;;;;;;;17.73;13.25;;;7.00;99.90;;;;;;5013058;28;20032;-77
2024/01/01 07:31:35;;;;;;;14.50;13.07;;;7.00;99.90;;;;;;5025080;28;20113;-78
2024/01/01 07:34:03;;;;;;;17.30;13.90;;;7.00;99.90;;;;;;5024199;28;20538;-76
2024/01/01 07:36:30;;;;;;;13.63;12.38;;;7.00;99.90;;;;;;5028974;28;20052;-78
2024/01/01 07:38:57;;;;;;;14.95;13.55;;;7.00;99.90;;;;;;5026838;28;20111;-77
2024/01/01 07:41:23;;;;;;;17.60;13.15;;;6.90;99.90;;;;;;5025970;28;20033;-78
2024/01/01 07:43:50;;;;;;;14.60;10.85;;;6.90;99.90;;;;;;5030520;28;20435;-76
2024/01/01 07:46:17;;;;;;;21.02;10.40;;;6.80;99.90;;;;;;5022437;28;21000;-76
2024/01/01 07:48:44;;;;;;;13.95;9.80;;;6.70;99.90;;;;;;5028024;28;20033;-77
2024/01/01 07:51:11;;;;;;;18.70;9.57;;;6.70;99.90;;;;;;5023172;28;20139;-77
2024/01/01 07:53:38;;;;;;;11.90;10.18;;;6.70;99.90;;;;;;5022352;28;20040;-75
2024/01/01 07:56:05;;;;;;;11.80;9.65;;;6.60;99.90;;;;;;5021212;28;20145;-76
2024/01/01 07:58:33;;;;;;;11.70;10.43;;;6.70;99.90;;;;;;5030599;28;20057;-75
2024/01/01 08:00:59;;;;;;;11.93;10.38;;;6.70;99.90;;;;;;5021636;28;20041;-76
2024/01/01 08:03:26;;;;;;;12.07;10.68;;;6.70;99.90;;;;;;5030013;28;20068;-76
2024/01/01 08:05:53;;;;;;;13.50;11.20;;;6.70;99.90;;;;;;5025166;28;20292;-77
2024/01/01 08:08:20;;;;;;;12.50;11.20;;;6.80;99.90;;;;;;5028429;28;20045;-78
2024/01/01 08:10:47;;;;;;;17.08;15.38;;;6.70;99.90;;;;;;5028237;28;20051;-78
2024/01/01 08:13:14;;;;;;;23.45;11.93;;;6.80;99.90;;;;;;5024541;28;20775;-77
2024/01/01 08:15:41;;;;;;;16.23;11.43;;;6.80;99.90;;;;;;5032074;28;20594;-76
2024/01/01 08:18:08;;;;;;;15.02;11.68;;;6.80;99.90;;;;;;5012069;28;20056;-79
2024/01/01 08:20:35;;;;;;;15.63;11.63;;;6.80;99.90;;;;;;5006922;28;20136;-77
2024/01/01 08:23:02;;;;;;;14.65;12.90;;;6.80;99.90;;;;;;5026963;28;20037;-77
2024/01/01 08:25:29;;;;;;;14.48;12.80;;;6.80;99.90;;;;;;5023036;28;20045;-77
2024/01/01 08:27:58;;;;;;;21.27;17.60;;;6.80;99.90;;;;;;5030425;28;20107;-75
2024/01/01 08:30:25;;;;;;;15.52;14.13;;;6.80;99.90;;;;;;5024188;28;20064;-77
2024/01/01 08:32:51;;;;;;;23.15;20.92;;;6.80;99.90;;;;;;5022853;28;20614;-78
2024/01/01 08:35:18;;;;;;;21.42;19.95;;;6.90;99.90;;;;;;5009408;28;20638;-76
2024/01/01 08:37:47;;;;;;;21.70;19.88;;;6.90;99.90;;;;;;4996395;28;21376;-76
2024/01/01 08:40:14;;;;;;;20.95;19.50;;;6.90;99.90;;;;;;5021236;28;20977;-77
2024/01/01 08:42:41;;;;;;;24.20;21.38;;;6.90;99.90;;;;;;5023650;28;20049;-76
2024/01/01 08:45:09;;;;;;;21.52;19.98;;;6.90;99.90;;;;;;5059474;28;20056;-76
2024/01/01 08:47:36;;;;;;;21.35;19.65;;;6.90;99.90;;;;;;5026230;28;20053;-78
2024/01/01 08:50:07;;;;;;;22.40;20.40;;;6.90;99.90;;;;;;5025257;28;20049;-76
2024/01/01 08:52:34;;;;;;;19.50;18.52;;;6.90;99.90;;;;;;5027259;28;20703;-76
2024/01/01 08:55:00;;;;;;;20.90;19.13;;;6.90;99.90;;;;;;5016254;28;20061;-78
2024/01/01 08:57:27;;;;;;;22.63;20.63;;;6.90;99.90;;;;;;5023904;28;20473;-77
2024/01/01 08:59:54;;;;;;;21.58;19.52;;;6.90;99.90;;;;;;5020220;28;20041;-77
2024/01/01 09:02:21;;;;;;;21.33;19.58;;;6.90;99.90;;;;;;5026464;28;20032;-77
2024/01/01 09:04:48;;;;;;;20.17;19.02;;;6.90;99.90;;;;;;5031234;28;20265;-76
2024/01/01 09:07:15;;;;;;;19.30;17.95;;;6.90;99.90;;;;;;5030955;28;20048;-76
2024/01/01 09:09:41;;;;;;;20.70;19.10;;;6.90;99.90;;;;;;5038330;28;20052;-76
2024/01/01 09:12:08;;;;;;;22.05;19.75;;;6.90;99.90;;;;;;5028973;28;20128;-75
2024/01/01 09:14:35;;;;;;;21.73;20.20;;;6.90;99.90;;;;;;5017612;28;20029;-73
2024/01/01 09:17:03;;;;;;;22.10;19.95;;;6.80;99.90;;;;;;5054970;28;20136;-74
2024/01/01 09:19:30;;;;;;;18.48;17.23;;;6.80;99.90;;;;;;5038021;28;20084;-78
2024/01/01 09:21:57;;;;;;;20.33;18.33;;;6.80;99.90;;;;;;5019771;28;20049;-78
2024/01/01 09:24:24;;;;;;;13.00;12.00;;;6.70;99.90;;;;;;5015490;28;20053;-77
2024/01/01 09:26:51;;;;;;;9.85;8.85;;;6.60;99.90;;;;;;5030183;28;20053;-78
2024/01/01 09:29:18;;;;;;;14.63;8.85;;;6.60;99.90;;;;;;5012186;28;20090;-76
2024/01/01 09:31:45;;;;;;;9.05;7.55;;;6.50;99.90;;;;;;4999045;28;20049;-76
2024/01/01 09:34:12;;;;;;;13.52;9.50;;;6.50;99.90;;;;;;5010628;28;20048;-77
2024/01/01 09:36:41;;;;;;;11.07;9.88;;;6.50;99.90;;;;;;5027401;28;20581;-75
2024/01/01 09:39:24;;;;;;;13.77;10.20;;;6.40;99.90;;;;;;5025808;28;20694;-78
2024/01/01 09:41:52;;;;;;;15.30;9.02;;;6.40;99.90;;;;;;5031073;28;20048;-77
2024/01/01 09:44:19;;;;;;;10.95;7.57;;;6.40;99.90;;;;;;5015784;28;20041;-77
2024/01/01 09:46:46;;;;;;;10.93;7.85;;;6.40;99.90;;;;;;5021638;28;20952;-78
2024/01/01 09:49:13;;;;;;;15.70;7.00;;;6.40;99.90;;;;;;5012451;28;20044;-77
2024/01/01 09:51:40;;;;;;;12.15;6.70;;;6.40;99.90;;;;;;4999084;28;20069;-76
2024/01/01 09:54:08;;;;;;;9.32;6.35;;;6.40;99.90;;;;;;5010383;28;20482;-76
2024/01/01 09:56:35;;;;;;;9.55;7.05;;;6.40;99.90;;;;;;5034562;28;20107;-77
2024/01/01 09:59:02;;;;;;;12.40;11.18;;;6.40;99.90;;;;;;5030719;28;20061;-75
2024/01/01 10:01:31;;;;;;;20.33;13.18;;;6.40;99.90;;;;;;5034841;28;20711;-74
2024/01/01 10:04:03;;;;;;;12.70;11.50;;;6.40;99.90;;;;;;4996337;28;20532;-77
2024/01/01 10:06:33;;;;;;;16.52;11.82;;;6.40;99.90;;;;;;5021330;28;20041;-75
2024/01/01 10:09:12;;;;;;;20.95;16.67;;;6.50;99.90;;;;;;5028384;28;20044;-76
2024/01/01 10:11:41;;;;;;;27.95;23.40;;;6.40;99.90;;;;;;5015519;28;20122;-78
2024/01/01 10:14:08;;;;;;;16.25;14.65;;;6.50;99.90;;;;;;5008705;28;20041;-77
2024/01/01 10:16:38;;;;;;;15.05;12.02;;;6.50;99.90;;;;;;5018436;28;20136;-78
2024/01/01 10:19:06;;;;;;;14.70;13.02;;;6.50;99.90;;;;;;5031387;28;20045;-74
2024/01/01 10:21:35;;;;;;;12.73;11.07;;;6.50;99.90;;;;;;5019390;28;20596;-77
2024/01/01 10:24:21;;;;;;;12.25;10.98;;;6.50;99.90;;;;;;5028728;28;20034;-76
2024/01/01 10:27:01;;;;;;;14.57;13.30;;;6.50;99.90;;;;;;5062094;28;20680;-77
2024/01/01 10:29:30;;;;;;;13.95;12.57;;;6.60;99.90;;;;;;5031410;28;20052;-77
2024/01/01 10:31:59;;;;;;;14.18;11.77;;;6.60;99.90;;;;;;5026448;28;20048;-75
2024/01/01 10:34:26;;;;;;;17.30;15.60;;;6.60;99.90;;;;;;5031967;28;20053;-77
2024/01/01 10:36:53;;;;;;;14.95;13.75;;;6.60;99.90;;;;;;5031377;28;20051;-77
2024/01/01 10:39:21;;;;;;;13.68;12.82;;;6.60;99.90;;;;;;5031239;28;20812;-76
2024/01/01 10:41:49;;;;;;;12.68;11.43;;;6.60;99.90;;;;;;5028896;28;20048;-76
2024/01/01 10:44:16;;;;;;;12.48;11.57;;;6.60;99.90;;;;;;5019790;28;20044;-75
2024/01/01 10:46:46;;;;;;;12.43;11.35;;;6.60;99.90;;;;;;5021723;28;20130;-78
2024/01/01 10:49:23;;;;;;;12.85;11.95;;;6.60;99.90;;;;;;5028910;28;20056;-78
2024/01/01 10:52:38;;;;;;;12.95;11.82;;;6.60;99.90;;;;;;5029735;28;20711;-77
2024/01/01 10:55:24;;;;;;;13.10;12.05;;;6.60;99.90;;;;;;5031173;28;20051;-76
2024/01/01 10:58:18;;;;;;;12.48;11.55;;;6.60;99.90;;;;;;5031531;28;20098;-76
2024/01/01 11:01:11;;;;;;;13.77;12.82;;;6.70;99.90;;;;;;5031149;28;20067;-76
2024/01/01 11:03:39;;;;;;;15.90;13.38;;;6.70;99.90;;;;;;5025766;28;20053;-77
2024/01/01 11:06:41;;;;;;;13.80;12.40;;;6.70;99.90;;;;;;5026803;28;20037;-77
2024/01/01 11:09:20;;;;;;;14.30;13.25;;;6.70;99.90;;;;;;5014239;28;20052;-78
2024/01/01 11:11:54;;;;;;;15.77;14.68;;;6.80;99.90;;;;;;5028915;28;20044;-77
2024/01/01 11:14:31;;;;;;;16.40;15.15;;;6.80;99.90;;;;;;5033506;28;20045;-77
2024/01/01 11:17:02;;;;;;;16.77;15.07;;;6.80;99.90;;;;;;5030833;28;20091;-76
2024/01/01 11:19:46;;;;;;;16.73;15.57;;;6.90;99.90;;;;;;5033083;28;20821;-77
2024/01/01 11:22:29;;;;;;;16.48;15.20;;;7.00;99.90;;;;;;5030857;28;20040;-78
2024/01/01 11:24:59;;;;;;;16.70;15.07;;;7.00;99.90;;;;;;5032345;28;20205;-76
2024/01/01 11:27:27;;;;;;;17.85;16.60;;;7.00;99.90;;;;;;5025596;28;21047;-78
2024/01/01 11:30:07;;;;;;;18.38;17.15;;;7.00;99.90;;;;;;5037477;28;20075;-76
2024/01/01 11:32:35;;;;;;;17.02;15.65;;;7.00;99.90;;;;;;5030985;28;20061;-75
2024/01/01 11:35:08;;;;;;;15.35;13.73;;;7.10;99.90;;;;;;5039353;28;20259;-75
2024/01/01 11:37:36;;;;;;;17.90;16.60;;;7.10;99.90;;;;;;5039101;28;20041;-79
2024/01/01 11:40:05;;;;;;;16.83;15.70;;;7.10;99.90;;;;;;5039262;28;20045;-77
2024/01/01 11:42:32;;;;;;;16.38;15.48;;;7.20;99.90;;;;;;5039508;28;20075;-77
2024/01/01 11:45:18;;;;;;;16.70;15.48;;;7.20;99.90;;;;;;5032701;28;20092;-80
2024/01/01 11:47:46;;;;;;;15.63;14.73;;;7.20;99.90;;;;;;5034578;28;20163;-76
2024/01/01 11:50:13;;;;;;;15.85;14.77;;;7.10;99.90;;;;;;5015794;28;20048;-77
2024/01/01 11:52:41;;;;;;;16.45;15.13;;;7.10;99.90;;;;;;5029906;28;20055;-77
2024/01/01 11:55:08;;;;;;;16.13;15.02;;;7.10;99.90;;;;;;5030164;28;20048;-75
2024/01/01 11:57:35;;;;;;;17.13;15.82;;;7.10;99.90;;;;;;5052155;28;20083;-76
2024/01/01 12:00:02;;;;;;;18.77;17.15;;;7.10;99.90;;;;;;5011638;28;20047;-75
2024/01/01 12:02:35;;;;;;;15.70;14.60;;;7.10;99.90;;;;;;5028693;28;20053;-77
2024/01/01 12:05:02;;;;;;;15.23;14.20;;;7.10;99.90;;;;;;5027534;28;20075;-75
2024/01/01 12:07:31;;;;;;;15.85;14.35;;;7.00;99.90;;;;;;5015108;28;20042;-75
2024/01/01 12:10:03;;;;;;;14.90;13.90;;;7.00;99.90;;;;;;5034192;28;20061;-76
2024/01/01 12:12:30;;;;;;;15.15;14.23;;;7.00;99.90;;;;;;5030541;28;20295;-76
2024/01/01 12:15:21;;;;;;;15.30;14.27;;;6.90;99.90;;;;;;5031706;28;20050;-77
2024/01/01 12:17:50;;;;;;;14.27;13.38;;;7.00;99.90;;;;;;5033034;28;20055;-78
2024/01/01 12:20:19;;;;;;;15.77;14.30;;;6.90;99.90;;;;;;5058778;28;20052;-78
2024/01/01 12:22:49;;;;;;;13.60;12.70;;;6.90;99.90;;;;;;5033048;28;20079;-76
2024/01/01 12:25:21;;;;;;;13.52;12.48;;;7.00;99.90;;;;;;5034420;28;20048;-77
2024/01/01 12:28:03;;;;;;;12.85;12.15;;;6.90;99.90;;;;;;5031740;28;20052;-77
2024/01/01 12:30:30;;;;;;;13.93;12.80;;;6.90;99.90;;;;;;5004780;28;20052;-77
2024/01/01 12:32:58;;;;;;;14.32;13.02;;;6.90;99.90;;;;;;5005283;28;20052;-78
2024/01/01 12:35:25;;;;;;;16.58;15.15;;;6.90;99.90;;;;;;5019149;28;20065;-77
2024/01/01 12:37:53;;;;;;;14.07;13.27;;;6.90;99.90;;;;;;4999004;28;20045;-79
2024/01/01 12:40:21;;;;;;;17.40;16.00;;;6.90;99.90;;;;;;5024208;28;20045;-77
2024/01/01 12:42:47;;;;;;;18.02;16.48;;;6.90;99.90;;;;;;5007365;28;20045;-79
2024/01/01 12:45:14;;;;;;;15.23;14.23;;;6.90;99.90;;;;;;5008541;28;20045;-78